• Join FlightAware (Why Join?)
  • Login
  • US Flag 
12:41PM EDT


 

Airport Tracker/Info


-or-


 

Live Flight TrackerFlight Track Log ✈ XOJ549 ✈ 06-May-2013 ✈ KEGE - MMSD / SJD

Flight Track Log - Related Links

Times and Time Zones

All times are in EDT time to prevent confusion due to time zone crossing. See the XOJ549 flight status page for this flight to view local times or setup timezone preferences in your user account.

Time Position Orientation Groundspeed Altitude Reporting Facility
EDT Latitude Longitude Course Direction KTS MPH feet Rate Location/Type
12:51PM 39.6292 -106.9583 294° West 202 232 8,000  Level Denver Center
12:53PM 39.6586 -107.0639 290° West 262 302 14,800 2,820 Climbing Denver Center
12:54PM 39.7431 -107.0881 348° North 312 359 16,800 2,700 Climbing Denver Center
12:55PM 39.9867 -107.6935 294° West  Level FlightAware Approximate
12:55PM 39.7850 -107.1808 300° West 315 362 20,500  Level Denver Center
12:56PM 40.0336 -107.8339 294° West  Level FlightAware Approximate
12:56PM 39.7422 -107.2931 244° Southwest 325 374 23,700  Level Denver Center
12:58PM 39.6325 -107.5183 237° Southwest  Level FlightAware Approximate
12:59PM 39.5981 -107.6139 237° Southwest 363 418 30,800  Level Denver Center
01:01PM 39.4656 -107.9061 240° Southwest 401 461 34,700 1,620 Climbing Denver Center
01:02PM 39.3997 -108.0497 239° Southwest 414 476 36,200 1,260 Climbing Denver Center
01:04PM 39.3141 -108.2219 237° Southwest  Level FlightAware Approximate
01:05PM 39.2094 -108.4661 201° Southwest 413 475 40,200  Level Denver Center
01:06PM 39.1528 -108.5889 239° Southwest 406 467 41,300 900 Climbing Denver Center
01:07PM 39.0956 -108.7117 239° Southwest 412 474 42,100 780 Climbing Denver Center
01:08PM 39.0006 -108.8214 222° Southwest 415 478 43,000 180 Climbing Denver Center
01:10PM 38.8672 -108.8213 193° South  Level FlightAware Approximate
01:11PM 38.7627 -108.9354 201° Southwest  Level FlightAware Approximate
01:11PM 38.6522 -108.9678 194° South 447 514 43,000  Level Denver Center
01:13PM 38.5327 -108.9743 182° South  Level FlightAware Approximate
01:16PM 38.1489 -109.1306 194° South 448 516 43,000  Level Denver Center
01:17PM 38.0834 -109.0823 194° South  Level FlightAware Approximate
01:17PM 38.0253 -109.1678 193° South 448 516 43,000  Level Denver Center
01:18PM 37.8900 -109.2114 194° South 448 516 43,000  Level Denver Center
01:20PM 37.7518 -109.1886 194° South  Level FlightAware Approximate
01:20PM 37.6814 -109.2606 191° South  Level FlightAware Approximate
01:21PM 37.6395 -109.2244 194° South  Level FlightAware Approximate
01:21PM 37.5242 -109.3275 191° South 446 513 43,000  Level Denver Center
01:22PM 37.3894 -109.3689 194° South 446 513 43,000  Level Denver Center
01:24PM 37.1406 -109.4464 194° South 442 509 43,000  Level Denver Center
01:26PM 36.8936 -109.5236 194° South 441 507 43,000  Level Denver Center
01:27PM 36.7800 -109.5589 194° South 440 506 43,000  Level Denver Center
01:29PM 36.6062 -109.6036 192° South  Level FlightAware Approximate
01:30PM 36.3997 -109.6742 192° South 441 507 43,000  Level Albuquerque Center
01:31PM 36.2881 -109.7083 194° South 437 503 43,000  Level Denver Center
01:32PM 36.1561 -109.7494 194° South 438 504 43,000  Level Denver Center
01:34PM 35.9999 -109.7490 180° South  Level Estimated
01:34PM 35.9106 -109.8231 180° South 439 505 43,000  Level Albuquerque Center
01:36PM 35.8125 -109.8052 192° South  Level FlightAware Approximate
01:36PM 35.7620 -109.8217 180° South  Level Estimated
01:36PM 35.6806 -109.8886 180° South 443 510 43,000  Level Albuquerque Center
01:37PM 35.5506 -109.9286 194° South 433 498 43,000  Level Albuquerque Center
01:38PM 35.4389 -109.9619 194° South 431 496 43,000  Level Albuquerque Center
01:39PM 35.3100 -110.0008 194° South 429 494 43,000  Level Albuquerque Center
01:41PM 35.1757 -109.9957 194° South  Level FlightAware Approximate
01:44PM 34.8225 -110.1511 195° South 430 495 43,000  Level Albuquerque Center
01:45PM 34.7089 -110.1831 193° South 432 497 43,000  Level Albuquerque Center
01:47PM 34.4853 -110.2346 191° South  Level FlightAware Approximate
01:48PM 34.3905 -110.2388 195° South  Level FlightAware Approximate
01:48PM 34.3464 -110.2819 191° South 440 506 43,000  Level Albuquerque Center
01:49PM 34.2787 -110.2748 195° South  Level FlightAware Approximate
01:50PM 34.0950 -110.3539 193° South 445 512 43,000  Level Albuquerque Center
01:51PM 33.9725 -110.3911 194° South 447 514 43,000  Level Albuquerque Center
01:52PM 33.8508 -110.4261 193° South 449 517 43,000  Level Albuquerque Center
01:53PM 33.7311 -110.4597 193° South 445 512 43,000  Level Albuquerque Center
01:54PM 33.6111 -110.4933 193° South 442 509 43,000  Level Albuquerque Center
01:55PM 33.4678 -110.5350 194° South 440 506 43,000  Level Albuquerque Center
01:56PM 33.3586 -110.5653 193° South 439 505 43,000  Level Albuquerque Center
01:57PM 33.2411 -110.5975 193° South 439 505 43,000 300 Level Albuquerque Center
01:58PM 33.0994 -110.6381 193° South 441 507 43,700 600 Climbing Albuquerque Center
01:59PM 32.9822 -110.6706 193° South 439 505 44,300 480 Climbing Albuquerque Center
02:00PM 32.8731 -110.7003 193° South 435 501 44,800 180 Climbing Albuquerque Center
02:02PM 32.6991 -110.7418 191° South  Level FlightAware Approximate
02:02PM 32.6147 -110.7722 191° South 433 498 45,000  Level Albuquerque Center
02:03PM 32.4944 -110.8058 193° South 441 507 45,000  Level Albuquerque Center
02:05PM 32.3274 -110.8326 194° South  Level FlightAware Approximate
02:05PM 32.2528 -110.8722 194° South 444 511 45,000  Level Albuquerque Center
02:07PM 32.0942 -110.8982 188° South  Level FlightAware Approximate
02:07PM 32.0078 -110.9208 188° South 452 520 45,000  Level Albuquerque Center
02:08PM 31.8817 -110.9256 182° South 455 524 45,000  Level Albuquerque Center
02:10PM 31.7312 -110.9277 181° South  Level FlightAware Approximate
02:10PM 31.6061 -110.9392 181° South 451 519 45,000  Level Albuquerque Center
02:11PM 31.4808 -110.9447 182° South 451 519 45,000  Level Albuquerque Center
02:14PM 31.2241 -110.9388 182° South  Level FlightAware Approximate
02:21PM 30.4146 -110.9789 182° South  Level FlightAware Approximate
02:22PM 30.2990 -110.9846 182° South  Level FlightAware Approximate
02:23PM 30.1833 -110.9902 182° South  Level FlightAware Approximate
02:24PM 30.0677 -110.9959 182° South  Level FlightAware Approximate
02:25PM 29.9521 -111.0012 182° South  Level FlightAware Approximate
02:26PM 29.8364 -111.0055 182° South  Level FlightAware Approximate
02:27PM 29.7207 -111.0098 182° South  Level FlightAware Approximate
02:28PM 29.6050 -111.0141 182° South  Level FlightAware Approximate
02:29PM 29.4893 -111.0184 182° South  Level FlightAware Approximate
02:30PM 29.3737 -111.0227 182° South  Level FlightAware Approximate
02:31PM 29.2580 -111.0269 182° South  Level FlightAware Approximate
02:32PM 29.1423 -111.0312 182° South  Level FlightAware Approximate
02:33PM 29.0268 -111.0275 175° South  Level FlightAware Approximate
02:34PM 28.9115 -111.0155 175° South  Level FlightAware Approximate
02:35PM 28.7963 -111.0035 175° South  Level FlightAware Approximate
02:36PM 28.6810 -110.9916 175° South  Level FlightAware Approximate
02:37PM 28.5657 -110.9797 175° South  Level FlightAware Approximate
02:38PM 28.4505 -110.9679 175° South  Level FlightAware Approximate
02:39PM 28.3352 -110.9560 175° South  Level FlightAware Approximate
02:40PM 28.2199 -110.9442 175° South  Level FlightAware Approximate
02:41PM 28.1047 -110.9324 175° South  Level FlightAware Approximate
02:42PM 27.9894 -110.9207 175° South  Level FlightAware Approximate
02:43PM 27.8743 -110.9062 173° South  Level FlightAware Approximate
02:44PM 27.7595 -110.8903 173° South  Level FlightAware Approximate
02:45PM 27.6446 -110.8745 173° South  Level FlightAware Approximate
02:46PM 27.5297 -110.8587 173° South  Level FlightAware Approximate
02:47PM 27.4149 -110.8416 172° South  Level FlightAware Approximate
02:48PM 27.3004 -110.8231 172° South  Level FlightAware Approximate
02:49PM 27.1858 -110.8046 172° South  Level FlightAware Approximate
02:50PM 27.0712 -110.7861 172° South  Level FlightAware Approximate
02:51PM 26.9567 -110.7677 172° South  Level FlightAware Approximate
02:52PM 26.8421 -110.7493 172° South  Level FlightAware Approximate
02:53PM 26.7275 -110.7310 172° South  Level FlightAware Approximate
02:54PM 26.6129 -110.7127 172° South  Level FlightAware Approximate
02:55PM 26.4983 -110.6952 173° South  Level FlightAware Approximate
02:56PM 26.3834 -110.6797 173° South  Level FlightAware Approximate
02:57PM 26.2685 -110.6641 173° South  Level FlightAware Approximate
02:58PM 26.1536 -110.6487 173° South  Level FlightAware Approximate
02:59PM 26.0387 -110.6332 173° South  Level FlightAware Approximate
03:00PM 25.9237 -110.6178 173° South  Level FlightAware Approximate
03:01PM 25.8088 -110.6023 173° South  Level FlightAware Approximate
03:02PM 25.6939 -110.5870 173° South  Level FlightAware Approximate
03:03PM 25.5789 -110.5724 174° South  Level FlightAware Approximate
03:04PM 25.4646 -110.5529 170° South  Level FlightAware Approximate
03:05PM 25.3504 -110.5333 180° South  Level FlightAware Approximate
03:06PM 25.2358 -110.5171 171° South  Level FlightAware Approximate
03:07PM 25.1213 -110.4982 172° South  Level FlightAware Approximate
03:08PM 25.0067 -110.4810 172° South  Level FlightAware Approximate
03:09PM 24.8920 -110.4638 172° South  Level FlightAware Approximate
03:10PM 24.7776 -110.4444 167° South  Level FlightAware Approximate
03:11PM 24.6638 -110.4217 171° South  Level FlightAware Approximate
03:12PM 24.5501 -110.3982 169° South  Level FlightAware Approximate
03:13PM 24.4360 -110.3774 173° South  Level FlightAware Approximate
03:14PM 24.3210 -110.3630 173° South  Level FlightAware Approximate
03:15PM 24.2062 -110.3477 169° South  Level FlightAware Approximate
03:16PM 24.0927 -110.3224 169° South  Level FlightAware Approximate
03:17PM 23.9885 -110.2697 151° Southeast  Level FlightAware Approximate
03:18PM 23.8870 -110.2088 151° Southeast  Level FlightAware Approximate
03:19PM 23.7859 -110.1474 150° Southeast  Level FlightAware Approximate
03:20PM 23.6854 -110.0846 150° Southeast  Level FlightAware Approximate
03:21PM 23.5847 -110.0224 147° Southeast  Level FlightAware Approximate
03:22PM 23.4879 -109.9532 147° Southeast  Level FlightAware Approximate
03:23PM 23.3925 -109.8818 145° Southeast  Level FlightAware Approximate
03:24PM 23.2928 -109.8230 149° Southeast  Level FlightAware Approximate
03:25PM 23.1959 -109.7542 151° Southeast  Level FlightAware Approximate
03:26PM 23.1518 -109.7210 151° Southeast  Level Estimated
03:27PM 23.1518 -109.7210 151° Southeast  Level Estimated
03:28PM 23.1518 -109.7210 151° Southeast  Level Estimated
03:29PM 23.1518 -109.7210 151° Southeast  Level Estimated
03:30PM 23.1518 -109.7210 151° Southeast  Level Estimated
03:31PM 23.1518 -109.7210 151° Southeast  Level Estimated
03:32PM 23.1518 -109.7210 151° Southeast  Level Estimated
03:33PM 23.1518 -109.7210 151° Southeast  Level Estimated
03:34PM 23.1518 -109.7210 151° Southeast  Level Estimated
03:35PM 23.1518 -109.7210 151° Southeast  Level Estimated
03:36PM 23.1518 -109.7210 151° Southeast  Level Estimated
03:37PM 23.1518 -109.7210 151° Southeast  Level Estimated
03:38PM 23.1518 -109.7210 151° Southeast  Level Estimated
03:39PM 23.1518 -109.7210 151° Southeast  Level Estimated
03:40PM 23.1518 -109.7210 151° Southeast  Level Estimated
03:41PM 23.1518 -109.7210 151° Southeast  Level Estimated